Blackwell-Tonkawa Muni Information

FAA: BKN - ICAO: KBKN

Blackwell-Tonkawa Muni (Airport) Location

State Oklahoma
County Kay
City Blackwell
Blackwell-Tonkawa Muni (Airport) is 5 miles southwest of Blackwell, OK.
Latitude 36-44-42.4000N
Longitude 097-20-58.5000W
Elevation 1,030ft

Blackwell-Tonkawa Muni METARs

METAR KBKN 172135Z AUTO 16019G28KT 9SM CLR 31/21 A2977 RMK AO2
Altimeter 29.77"
Temperature 31.0°C (87.8°F)
Wind 160° at 19KT with gusts to 28KT
Clouds Skies are clear.
Visibility 9.0mi
Time observed: 2022-05-17T21:35:00Z

Blackwell-Tonkawa Muni (Airport) Details

Status Operational
Activation September 1974
Ownership Public
Usage Public
Chart WICHITA
ATC on-site No
Beacon schedule sunset-sunrise
Beacon color clear green

Blackwell-Tonkawa Muni (Airport) Contacts

Owner CITIES OF BLACKWELL/TONKAWA
Owner address 16705 W. HUBBARD ROAD, BLACKWELL, OK 74631
Owner phone 580-363-4242
Manager PRESIDENT - DARYLE VOSS
Manager address 1011 14TH AVE, NW, ARDMORE, OK 73401
Manager phone 580-223-5400

Blackwell-Tonkawa Muni Radio Frequencies

Blackwell-Tonkawa Muni (Airport) Radio Frequencies

UNICOM 122.8
Common traffic advisory frequency (CTAF) 122.8